Time;durP1;ratioP1;P1;durP2;ratioP2;P2;SDS_P1;SDS_P2;PMS_P1;PMS_P2;Temp;Humidity;BMP_temperature;BMP_pressure;BME280_temperature;BME280_humidity;BME280_pressure;Samples;Min_cycle;Max_cycle;Signal;HPM_P1;HPM_P2
2021/07/26 00:00:26;;;;;;;4.70;3.80;;;18.10;99.90;;;;;;5068459;28;20489;-54
2021/07/26 00:02:53;;;;;;;4.40;3.63;;;18.20;99.90;;;;;;5071065;28;20447;-54
2021/07/26 00:05:20;;;;;;;3.87;3.30;;;18.10;99.90;;;;;;5072149;28;21015;-54
2021/07/26 00:07:47;;;;;;;4.30;3.90;;;18.10;99.90;;;;;;5072149;28;20529;-54
2021/07/26 00:10:14;;;;;;;7.20;4.13;;;18.10;99.90;;;;;;5071940;28;20506;-54
2021/07/26 00:12:41;;;;;;;4.23;3.53;;;18.10;99.90;;;;;;5071663;28;20439;-54
2021/07/26 00:15:11;;;;;;;4.30;3.60;;;18.10;99.90;;;;;;5072029;28;20527;-54
2021/07/26 00:17:38;;;;;;;4.10;3.67;;;18.00;99.90;;;;;;5054668;28;20471;-54
2021/07/26 00:20:06;;;;;;;4.40;4.00;;;18.00;99.90;;;;;;5052310;28;20443;-54
2021/07/26 00:22:33;;;;;;;6.33;3.63;;;18.10;99.90;;;;;;5071315;28;20820;-54
2021/07/26 00:25:00;;;;;;;4.30;3.27;;;18.10;99.90;;;;;;5071886;28;20451;-54
2021/07/26 00:27:27;;;;;;;5.40;3.63;;;18.20;99.90;;;;;;5071498;28;20467;-54
2021/07/26 00:29:54;;;;;;;5.60;3.67;;;18.10;99.90;;;;;;5071824;28;20500;-54
2021/07/26 00:32:22;;;;;;;4.83;3.60;;;18.00;99.90;;;;;;5065257;28;20448;-54
2021/07/26 00:34:49;;;;;;;5.50;3.70;;;18.00;99.90;;;;;;5052489;28;20447;-54
2021/07/26 00:37:18;;;;;;;5.17;3.47;;;18.10;99.90;;;;;;5071431;28;21061;-54
2021/07/26 00:39:45;;;;;;;4.00;3.30;;;18.10;99.90;;;;;;5071844;28;20987;-54
2021/07/26 00:42:12;;;;;;;3.83;3.40;;;18.10;99.90;;;;;;5071590;28;20509;-54
2021/07/26 00:44:39;;;;;;;5.37;4.17;;;18.10;99.90;;;;;;5071592;28;20443;-54
2021/07/26 00:47:08;;;;;;;4.83;3.20;;;18.00;99.90;;;;;;5071450;28;20479;-54
2021/07/26 00:49:37;;;;;;;4.50;3.57;;;18.10;99.90;;;;;;5057082;28;20452;-54
2021/07/26 00:52:06;;;;;;;5.93;3.27;;;18.10;99.90;;;;;;5065673;28;20443;-54
2021/07/26 00:54:35;;;;;;;10.30;3.90;;;18.10;99.90;;;;;;5071850;28;20447;-54
2021/07/26 00:57:07;;;;;;;5.93;4.03;;;18.10;99.90;;;;;;5071379;28;20486;-54
2021/07/26 00:59:35;;;;;;;4.50;3.50;;;18.10;99.90;;;;;;5071666;28;20852;-54
2021/07/26 01:02:04;;;;;;;4.13;3.20;;;18.00;99.90;;;;;;5071151;28;20473;-54
2021/07/26 01:04:31;;;;;;;5.40;3.50;;;18.00;99.90;;;;;;5067793;28;20809;-54
2021/07/26 01:07:00;;;;;;;3.30;3.00;;;18.00;99.90;;;;;;5065032;28;20999;-54
2021/07/26 01:09:27;;;;;;;5.47;4.00;;;18.00;99.90;;;;;;5071378;28;20949;-54
2021/07/26 01:11:54;;;;;;;4.77;3.97;;;18.00;99.90;;;;;;5070903;28;20450;-54
2021/07/26 01:14:21;;;;;;;6.67;4.13;;;18.00;99.90;;;;;;5071242;28;20447;-54
2021/07/26 01:16:50;;;;;;;7.53;4.00;;;18.00;99.90;;;;;;5070911;28;20482;-54
2021/07/26 01:19:17;;;;;;;5.00;4.23;;;17.90;99.90;;;;;;5071373;28;20827;-54
2021/07/26 01:21:46;;;;;;;4.93;4.07;;;17.90;99.90;;;;;;5070595;28;20447;-54
2021/07/26 01:24:13;;;;;;;6.80;4.00;;;17.90;99.90;;;;;;5070800;28;20447;-54
2021/07/26 01:26:40;;;;;;;8.73;4.50;;;17.90;99.90;;;;;;5070850;28;20496;-54
2021/07/26 01:29:10;;;;;;;7.90;5.00;;;17.90;99.90;;;;;;5071302;28;20940;-54
2021/07/26 01:31:37;;;;;;;6.00;4.87;;;17.80;99.90;;;;;;5070848;28;20458;-54
2021/07/26 01:34:05;;;;;;;6.67;5.10;;;17.70;99.90;;;;;;5071055;28;20508;-54
2021/07/26 01:36:32;;;;;;;10.20;5.40;;;17.70;99.90;;;;;;5070904;28;21019;-54
2021/07/26 01:39:00;;;;;;;8.57;6.07;;;17.70;99.90;;;;;;5051396;28;21019;-54
2021/07/26 01:41:34;;;;;;;6.80;5.63;;;17.50;99.90;;;;;;5067395;28;20944;-54
2021/07/26 01:44:06;;;;;;;8.30;6.07;;;17.50;99.90;;;;;;5070307;28;20969;-54
2021/07/26 01:46:52;;;;;;;6.40;5.73;;;17.40;99.90;;;;;;5070471;28;20817;-54
2021/07/26 01:49:35;;;;;;;7.00;5.33;;;17.50;99.90;;;;;;5051136;28;21015;-54
2021/07/26 01:52:06;;;;;;;9.30;5.60;;;17.40;99.90;;;;;;5050892;28;20447;-54
2021/07/26 01:54:35;;;;;;;6.80;4.83;;;17.40;99.90;;;;;;5051058;28;20501;-54
2021/07/26 01:57:05;;;;;;;7.00;5.80;;;17.50;99.90;;;;;;5065113;28;20547;-54
2021/07/26 01:59:32;;;;;;;6.40;4.90;;;17.60;99.90;;;;;;5070862;28;20518;-54
2021/07/26 02:05:21;;;;;;;6.40;5.40;;;17.50;99.90;;;;;;5070760;28;20942;-54
2021/07/26 02:07:48;;;;;;;6.83;4.80;;;17.40;99.90;;;;;;5070583;28;20458;-54
2021/07/26 02:10:16;;;;;;;7.87;5.37;;;17.10;99.90;;;;;;5072107;28;20504;-54
2021/07/26 02:12:43;;;;;;;8.73;5.50;;;17.00;99.90;;;;;;5073945;28;20455;-54
2021/07/26 02:15:11;;;;;;;13.13;6.10;;;17.00;99.90;;;;;;5073877;28;20446;-54
2021/07/26 02:17:38;;;;;;;6.87;5.23;;;17.00;99.90;;;;;;5072757;28;21364;-54
2021/07/26 02:20:06;;;;;;;5.07;4.50;;;17.10;99.90;;;;;;5074075;28;20435;-54
2021/07/26 02:22:33;;;;;;;6.30;4.57;;;17.20;99.90;;;;;;5073823;28;21097;-54
2021/07/26 02:25:00;;;;;;;5.80;4.80;;;17.30;99.90;;;;;;5074435;28;20455;-54
2021/07/26 02:27:28;;;;;;;9.20;4.97;;;17.60;99.90;;;;;;5073895;28;20471;-54
2021/07/26 02:29:55;;;;;;;6.10;4.80;;;17.60;99.90;;;;;;5074239;28;20447;-54
2021/07/26 02:32:22;;;;;;;5.80;4.57;;;17.50;99.90;;;;;;5073139;28;20952;-54
2021/07/26 02:34:49;;;;;;;7.00;4.70;;;17.50;99.90;;;;;;5068045;28;20492;-54
2021/07/26 02:37:16;;;;;;;8.27;5.20;;;17.60;99.90;;;;;;5065696;28;20545;-54
2021/07/26 02:39:43;;;;;;;6.57;4.50;;;17.70;99.90;;;;;;5054191;28;20838;-54
2021/07/26 02:42:10;;;;;;;5.40;4.80;;;17.70;99.90;;;;;;5067261;28;20450;-54
2021/07/26 02:44:39;;;;;;;13.20;5.80;;;17.70;99.90;;;;;;5073481;28;20916;-54
2021/07/26 02:47:06;;;;;;;7.03;5.10;;;17.80;99.90;;;;;;5073806;28;20849;-54
2021/07/26 02:49:33;;;;;;;6.60;5.17;;;17.80;99.90;;;;;;5054141;28;20448;-54
2021/07/26 02:51:59;;;;;;;6.60;5.33;;;17.70;99.90;;;;;;5065853;28;20459;-54
2021/07/26 02:54:26;;;;;;;6.00;4.90;;;17.80;99.90;;;;;;5073583;28;20454;-54
2021/07/26 02:56:53;;;;;;;7.07;4.83;;;17.80;99.90;;;;;;5065044;28;20911;-54
2021/07/26 02:59:20;;;;;;;6.77;5.63;;;17.70;99.90;;;;;;5073931;28;20451;-54
2021/07/26 03:01:51;;;;;;;7.90;5.40;;;17.70;99.90;;;;;;5073218;28;20508;-54
2021/07/26 03:04:18;;;;;;;9.90;5.40;;;17.80;99.90;;;;;;5072077;28;20451;-54
2021/07/26 03:06:45;;;;;;;8.53;5.27;;;17.70;99.90;;;;;;5073332;28;20466;-54
2021/07/26 03:09:12;;;;;;;8.03;4.33;;;17.70;99.90;;;;;;5073605;28;20469;-54
2021/07/26 03:11:39;;;;;;;8.20;5.37;;;17.60;99.90;;;;;;5073016;28;20572;-54
2021/07/26 03:14:06;;;;;;;6.83;4.70;;;17.60;99.90;;;;;;5073478;28;20446;-54
2021/07/26 03:16:33;;;;;;;4.80;4.23;;;17.70;99.90;;;;;;5072774;28;20540;-54
2021/07/26 03:19:01;;;;;;;6.83;4.73;;;17.60;99.90;;;;;;5055870;28;20443;-54
2021/07/26 03:21:28;;;;;;;6.40;5.03;;;17.50;99.90;;;;;;5061270;28;20451;-54
2021/07/26 03:23:55;;;;;;;5.43;3.90;;;17.40;99.90;;;;;;5072766;28;20451;-54
2021/07/26 03:26:22;;;;;;;5.60;4.60;;;17.50;99.90;;;;;;5072939;28;20477;-54
2021/07/26 03:28:49;;;;;;;6.47;4.70;;;17.50;99.90;;;;;;5073198;28;20805;-54
2021/07/26 03:31:16;;;;;;;5.50;4.90;;;17.50;99.90;;;;;;5072772;28;20500;-54
2021/07/26 03:33:44;;;;;;;6.00;4.77;;;17.60;99.90;;;;;;5067118;28;20501;-54
2021/07/26 03:36:14;;;;;;;5.60;4.70;;;17.60;99.90;;;;;;5066568;28;20557;-54
2021/07/26 03:38:41;;;;;;;8.67;4.87;;;17.70;99.90;;;;;;5072787;28;20554;-54
2021/07/26 03:41:08;;;;;;;6.30;5.03;;;17.70;99.90;;;;;;5072338;28;20447;-54
2021/07/26 03:43:35;;;;;;;7.13;5.00;;;17.60;99.90;;;;;;5072774;28;20450;-54
2021/07/26 03:46:02;;;;;;;8.53;5.37;;;17.60;99.90;;;;;;5072618;28;20451;-54
2021/07/26 03:48:29;;;;;;;5.73;4.33;;;17.70;99.90;;;;;;5094615;22;20532;-60
2021/07/26 03:50:56;;;;;;;9.37;5.17;;;17.70;99.90;;;;;;5072022;28;20446;-60
2021/07/26 03:53:25;;;;;;;9.40;5.13;;;17.60;99.90;;;;;;5072373;28;20447;-60
2021/07/26 03:55:52;;;;;;;7.03;5.33;;;17.60;99.90;;;;;;5072255;28;20450;-60
2021/07/26 03:58:19;;;;;;;8.83;5.43;;;17.60;99.90;;;;;;5072310;28;21065;-60
2021/07/26 04:00:45;;;;;;;11.30;5.70;;;17.60;99.90;;;;;;5071979;28;20508;-60
2021/07/26 04:03:18;;;;;;;7.33;5.50;;;17.60;99.90;;;;;;5069323;28;20455;-60
2021/07/26 04:05:47;;;;;;;7.43;6.10;;;17.50;99.90;;;;;;5071487;28;20985;-60
2021/07/26 04:08:16;;;;;;;8.03;6.40;;;17.40;99.90;;;;;;5072168;28;20900;-60
2021/07/26 04:10:47;;;;;;;7.43;5.43;;;17.30;99.90;;;;;;5070803;28;20555;-59
2021/07/26 04:13:14;;;;;;;9.33;5.60;;;17.30;99.90;;;;;;5059089;28;20452;-59
2021/07/26 04:15:44;;;;;;;9.50;6.20;;;17.30;99.90;;;;;;5058746;28;20451;-59
2021/07/26 04:18:12;;;;;;;6.50;5.00;;;17.40;99.90;;;;;;5072039;28;20562;-58
2021/07/26 04:20:39;;;;;;;6.83;5.23;;;17.40;99.90;;;;;;5071935;28;20470;-58
2021/07/26 04:23:07;;;;;;;7.27;5.17;;;17.30;99.90;;;;;;5072080;28;20813;-58
2021/07/26 04:25:34;;;;;;;8.03;5.33;;;17.40;99.90;;;;;;5072183;28;20486;-58
2021/07/26 04:28:02;;;;;;;6.17;4.50;;;17.50;99.90;;;;;;5071861;28;20467;-59
2021/07/26 04:30:29;;;;;;;5.73;5.13;;;17.50;99.90;;;;;;5071570;28;20450;-58
2021/07/26 04:32:56;;;;;;;7.60;5.37;;;17.50;99.90;;;;;;5071283;28;20455;-58
2021/07/26 04:35:23;;;;;;;7.47;4.63;;;17.50;99.90;;;;;;5071483;28;20879;-59
2021/07/26 04:37:50;;;;;;;11.07;5.33;;;17.50;99.90;;;;;;5071201;28;21004;-60
2021/07/26 04:40:17;;;;;;;7.60;6.23;;;17.60;99.90;;;;;;5071584;28;20451;-59
2021/07/26 04:42:44;;;;;;;8.63;5.57;;;17.60;99.90;;;;;;5071563;28;20493;-59
2021/07/26 04:45:14;;;;;;;9.07;6.20;;;17.50;99.90;;;;;;5071578;28;20453;-59
2021/07/26 04:47:42;;;;;;;8.60;6.07;;;17.50;99.90;;;;;;5071549;28;20992;-60
2021/07/26 04:50:10;;;;;;;10.80;7.17;;;17.50;99.90;;;;;;5071876;28;20451;-60
2021/07/26 04:52:38;;;;;;;13.00;7.90;;;17.50;99.90;;;;;;5070914;28;20443;-60
2021/07/26 04:55:06;;;;;;;10.50;6.77;;;17.40;99.90;;;;;;5071321;28;20446;-61
2021/07/26 04:57:33;;;;;;;12.00;6.80;;;17.40;99.90;;;;;;5071437;28;20509;-60
2021/07/26 05:00:00;;;;;;;8.97;6.07;;;17.40;99.90;;;;;;5071613;28;20504;-60
2021/07/26 05:02:28;;;;;;;7.80;5.70;;;17.30;99.90;;;;;;5071210;28;20447;-60
2021/07/26 05:04:55;;;;;;;9.67;6.20;;;17.40;99.90;;;;;;5071604;28;20500;-60
2021/07/26 05:07:22;;;;;;;8.70;5.63;;;17.30;99.90;;;;;;5071478;28;20462;-60
2021/07/26 05:09:49;;;;;;;7.77;6.30;;;17.30;99.90;;;;;;5071346;28;20519;-60
2021/07/26 05:12:16;;;;;;;8.43;5.73;;;17.40;99.90;;;;;;5071220;28;20447;-60
2021/07/26 05:14:46;;;;;;;8.07;6.03;;;17.30;99.90;;;;;;5071773;28;20496;-60
2021/07/26 05:17:13;;;;;;;8.50;6.50;;;17.20;99.90;;;;;;5071150;28;20482;-60
2021/07/26 05:19:42;;;;;;;9.13;6.10;;;17.30;99.90;;;;;;5071265;28;20450;-60
2021/07/26 05:22:09;;;;;;;8.83;5.30;;;17.30;99.90;;;;;;5070852;28;20742;-60
2021/07/26 05:24:36;;;;;;;9.57;6.33;;;17.30;99.90;;;;;;5071715;28;20496;-60
2021/07/26 05:27:09;;;;;;;8.90;6.00;;;17.20;99.90;;;;;;5071242;28;21198;-60
2021/07/26 05:29:35;;;;;;;7.53;5.70;;;17.10;99.90;;;;;;5071332;28;20474;-60
2021/07/26 05:32:06;;;;;;;8.77;6.00;;;17.10;99.90;;;;;;5071182;28;20450;-60
2021/07/26 05:34:33;;;;;;;6.73;5.33;;;17.10;99.90;;;;;;5071105;28;20941;-60
2021/07/26 05:37:05;;;;;;;6.07;5.03;;;17.20;99.90;;;;;;5071173;28;20454;-60
2021/07/26 05:39:32;;;;;;;7.67;5.83;;;17.30;99.90;;;;;;5071322;28;20439;-60
2021/07/26 05:42:00;;;;;;;6.63;5.27;;;17.60;99.90;;;;;;5071056;28;20447;-60
2021/07/26 05:44:27;;;;;;;6.10;4.97;;;17.90;99.90;;;;;;5070606;28;21025;-61
2021/07/26 05:46:54;;;;;;;6.53;4.83;;;18.20;99.90;;;;;;5074800;28;20894;-61
2021/07/26 05:49:21;;;;;;;7.17;4.73;;;18.40;99.90;;;;;;5074932;28;20442;-62
2021/07/26 05:51:48;;;;;;;5.50;5.00;;;18.60;99.90;;;;;;5073997;28;20442;-61
2021/07/26 05:54:17;;;;;;;4.87;4.37;;;18.80;99.90;;;;;;5074915;28;20994;-61
2021/07/26 05:56:46;;;;;;;4.73;4.03;;;18.80;99.90;;;;;;5073071;28;20447;-61
2021/07/26 05:59:13;;;;;;;6.20;4.13;;;19.20;99.90;;;;;;5074540;28;20561;-62
2021/07/26 06:01:49;;;;;;;5.90;4.60;;;19.40;99.90;;;;;;5074265;28;21018;-60
2021/07/26 06:04:17;;;;;;;5.07;3.90;;;19.70;99.90;;;;;;5073978;28;20450;-61
2021/07/26 06:06:46;;;;;;;4.70;4.20;;;20.20;99.90;;;;;;5074016;28;20466;-61
2021/07/26 06:09:14;;;;;;;4.40;4.00;;;20.80;99.90;;;;;;5074263;28;20500;-61
2021/07/26 06:11:43;;;;;;;3.73;3.43;;;21.60;99.90;;;;;;5073756;28;20458;-61
2021/07/26 06:14:11;;;;;;;4.40;4.00;;;22.20;99.90;;;;;;5074419;28;20447;-62
2021/07/26 06:16:41;;;;;;;8.90;5.10;;;22.90;99.90;;;;;;5074438;28;20450;-62
2021/07/26 06:19:10;;;;;;;6.70;4.37;;;22.80;99.90;;;;;;5074370;28;20477;-62
2021/07/26 06:21:41;;;;;;;6.40;4.47;;;22.40;99.90;;;;;;5073535;28;20546;-61
2021/07/26 06:24:08;;;;;;;5.57;4.60;;;22.10;99.90;;;;;;5067848;28;20512;-61
2021/07/26 06:26:35;;;;;;;5.70;4.37;;;22.20;99.90;;;;;;5073323;28;20204;-62
2021/07/26 06:29:04;;;;;;;4.63;4.00;;;22.30;99.90;;;;;;5073957;28;20462;-62
2021/07/26 06:31:33;;;;;;;4.33;3.57;;;22.70;99.90;;;;;;5073725;28;20447;-61
2021/07/26 06:34:00;;;;;;;4.17;3.60;;;22.90;99.90;;;;;;5074056;28;20530;-62
2021/07/26 06:36:27;;;;;;;5.53;3.63;;;23.00;99.90;;;;;;5073348;28;20455;-61
2021/07/26 06:38:55;;;;;;;3.77;3.37;;;23.00;99.90;;;;;;5073684;28;20577;-61
2021/07/26 06:41:23;;;;;;;6.10;3.67;;;23.00;99.90;;;;;;5073949;28;20497;-61
2021/07/26 06:43:52;;;;;;;4.43;3.50;;;22.80;99.90;;;;;;5057998;28;20527;-61
2021/07/26 06:46:21;;;;;;;3.70;3.03;;;22.50;99.90;;;;;;5053758;28;20447;-62
2021/07/26 06:48:49;;;;;;;4.13;3.23;;;22.50;99.90;;;;;;5065629;28;20467;-61
2021/07/26 06:51:16;;;;;;;3.70;3.40;;;22.70;99.90;;;;;;5067349;28;20458;-62
2021/07/26 06:53:43;;;;;;;4.47;3.20;;;22.60;99.90;;;;;;5070944;28;20467;-62
2021/07/26 06:56:11;;;;;;;5.10;3.67;;;22.60;99.90;;;;;;5064714;28;20462;-61
2021/07/26 06:58:40;;;;;;;5.33;3.60;;;22.40;99.90;;;;;;5065365;28;20482;-62
2021/07/26 07:01:09;;;;;;;3.93;3.53;;;22.70;99.90;;;;;;5064636;28;20491;-61
2021/07/26 07:03:38;;;;;;;6.10;3.87;;;23.70;99.90;;;;;;5065886;28;20462;-62
2021/07/26 07:06:06;;;;;;;4.80;3.80;;;24.40;99.90;;;;;;5061641;28;20463;-63
2021/07/26 07:08:33;;;;;;;4.10;3.70;;;24.50;99.90;;;;;;5062681;28;20487;-61
2021/07/26 07:11:05;;;;;;;3.83;3.43;;;24.30;99.90;;;;;;5062143;28;20462;-62
2021/07/26 07:13:32;;;;;;;3.60;3.30;;;24.10;99.90;;;;;;5064120;28;20835;-63
2021/07/26 07:15:59;;;;;;;5.17;3.63;;;24.80;99.90;;;;;;5068163;28;20471;-62
2021/07/26 07:18:26;;;;;;;5.30;4.30;;;25.50;99.90;;;;;;5064727;28;20517;-62
2021/07/26 07:20:54;;;;;;;6.57;3.70;;;26.10;99.90;;;;;;5070711;28;20459;-62
2021/07/26 07:23:21;;;;;;;5.23;3.50;;;26.60;99.90;;;;;;5065351;28;20466;-63
2021/07/26 07:25:48;;;;;;;3.60;3.30;;;26.80;99.90;;;;;;5064409;28;20463;-62
2021/07/26 07:28:15;;;;;;;5.10;3.80;;;26.90;99.90;;;;;;5061798;28;20885;-63
2021/07/26 07:30:42;;;;;;;3.53;3.20;;;27.20;99.90;;;;;;5060721;28;20516;-63
2021/07/26 07:33:09;;;;;;;4.20;3.57;;;26.90;99.90;;;;;;5068758;28;20443;-62
2021/07/26 07:35:36;;;;;;;4.50;3.60;;;27.20;99.90;;;;;;5063475;28;20459;-63
2021/07/26 07:38:04;;;;;;;3.30;3.00;;;27.40;99.90;;;;;;5070866;28;20479;-63
2021/07/26 07:40:31;;;;;;;4.03;3.17;;;27.80;99.90;;;;;;5064172;28;20940;-63
2021/07/26 07:42:58;;;;;;;3.50;3.20;;;27.70;99.90;;;;;;5066016;28;20467;-63
2021/07/26 07:45:25;;;;;;;4.67;4.27;;;28.50;99.90;;;;;;5067611;28;20467;-62
2021/07/26 07:47:55;;;;;;;4.00;3.00;;;28.70;99.90;;;;;;5054145;28;20901;-62
2021/07/26 07:50:23;;;;;;;6.00;2.73;;;29.20;99.90;;;;;;5054682;28;20552;-63
2021/07/26 07:52:50;;;;;;;2.83;2.63;;;29.60;99.90;;;;;;5062200;28;20856;-62
2021/07/26 07:55:19;;;;;;;3.40;3.10;;;30.00;99.90;;;;;;5063458;28;20489;-63
2021/07/26 07:57:51;;;;;;;5.33;3.07;;;29.00;99.90;;;;;;5063463;28;20478;-63
2021/07/26 08:00:20;;;;;;;3.67;2.70;;;29.00;99.90;;;;;;5060358;28;21617;-62
2021/07/26 08:02:47;;;;;;;3.70;2.90;;;28.60;99.90;;;;;;5061715;28;21012;-62
2021/07/26 08:05:15;;;;;;;3.40;3.10;;;27.90;99.90;;;;;;5062348;28;20475;-62
2021/07/26 08:07:43;;;;;;;3.00;2.80;;;27.80;99.90;;;;;;5062520;28;20574;-61
2021/07/26 08:10:10;;;;;;;2.70;2.50;;;27.40;99.90;;;;;;5063901;28;20462;-62
2021/07/26 08:12:39;;;;;;;2.50;2.30;;;27.00;99.90;;;;;;5063330;28;21104;-61
2021/07/26 08:15:07;;;;;;;2.67;2.47;;;26.50;99.90;;;;;;5066002;28;20467;-62
2021/07/26 08:17:34;;;;;;;3.70;3.40;;;26.10;99.90;;;;;;5062808;28;20478;-61
2021/07/26 08:20:04;;;;;;;6.70;3.00;;;26.00;99.90;;;;;;5062227;28;20482;-61
2021/07/26 08:22:31;;;;;;;5.27;2.83;;;26.10;99.90;;;;;;5061876;28;20486;-62
2021/07/26 08:24:59;;;;;;;3.37;2.90;;;26.10;99.90;;;;;;5061442;28;20478;-62
2021/07/26 08:27:26;;;;;;;3.00;2.80;;;25.80;99.90;;;;;;5065259;28;21023;-62
2021/07/26 08:29:54;;;;;;;2.83;2.40;;;25.70;99.90;;;;;;5059832;28;20468;-62
2021/07/26 08:32:21;;;;;;;3.10;2.77;;;25.60;99.90;;;;;;5061602;28;20459;-62
2021/07/26 08:34:48;;;;;;;4.10;3.13;;;25.40;99.90;;;;;;5062564;28;20470;-62
2021/07/26 08:37:15;;;;;;;2.33;2.20;;;25.30;99.90;;;;;;5061717;28;20486;-62
2021/07/26 08:39:42;;;;;;;3.27;2.97;;;25.30;99.90;;;;;;5062158;28;20483;-61
2021/07/26 08:42:09;;;;;;;2.60;2.40;;;25.00;99.90;;;;;;5063227;28;20466;-60
2021/07/26 08:44:38;;;;;;;2.90;2.57;;;24.60;99.90;;;;;;5062939;28;20446;-62
2021/07/26 08:47:06;;;;;;;2.50;2.30;;;24.50;99.90;;;;;;5071111;28;20992;-62
2021/07/26 08:49:34;;;;;;;3.20;2.90;;;24.60;99.90;;;;;;5059743;28;20459;-63
2021/07/26 08:52:05;;;;;;;2.30;2.10;;;24.80;99.90;;;;;;5061285;28;20462;-61
2021/07/26 08:54:33;;;;;;;2.50;2.30;;;25.00;99.90;;;;;;5061984;28;20508;-61
2021/07/26 08:57:03;;;;;;;2.50;2.20;;;24.60;99.90;;;;;;5060950;28;20984;-61
2021/07/26 08:59:31;;;;;;;3.07;2.50;;;24.80;99.90;;;;;;5060843;28;20474;-62
2021/07/26 09:01:58;;;;;;;2.47;2.27;;;25.10;99.90;;;;;;5060588;28;22210;-62
2021/07/26 09:04:26;;;;;;;2.60;2.40;;;25.30;99.90;;;;;;5062132;28;20517;-63
2021/07/26 09:06:56;;;;;;;2.60;2.40;;;25.70;99.90;;;;;;5058473;28;20467;-62
2021/07/26 09:09:44;;;;;;;5.20;2.63;;;26.00;99.90;;;;;;5062081;28;21050;-62
2021/07/26 09:12:14;;;;;;;3.73;2.97;;;25.90;99.90;;;;;;5060822;28;20929;-62
2021/07/26 09:14:41;;;;;;;3.00;2.30;;;26.40;99.90;;;;;;5061123;28;20491;-63
2021/07/26 09:17:09;;;;;;;2.83;2.50;;;27.10;99.90;;;;;;5061091;28;20884;-62
2021/07/26 09:19:58;;;;;;;3.70;2.40;;;27.30;99.90;;;;;;5063072;28;20568;-62
2021/07/26 09:22:29;;;;;;;2.10;2.00;;;27.70;99.90;;;;;;5064408;28;20553;-62
2021/07/26 09:25:16;;;;;;;2.67;2.47;;;28.50;99.90;;;;;;5063750;28;20466;-62
2021/07/26 09:27:59;;;;;;;3.30;2.73;;;29.40;99.90;;;;;;5064515;28;20490;-62
2021/07/26 09:30:27;;;;;;;6.20;3.30;;;30.10;99.90;;;;;;5064123;28;20847;-63
2021/07/26 09:32:54;;;;;;;4.33;3.93;;;29.70;99.90;;;;;;5064496;28;21241;-62
2021/07/26 09:35:25;;;;;;;4.20;3.83;;;27.90;99.90;;;;;;5066372;28;20982;-62
2021/07/26 09:37:59;;;;;;;4.40;4.03;;;25.90;99.90;;;;;;5069302;28;20486;-61
2021/07/26 09:40:30;;;;;;;4.60;3.60;;;25.40;99.90;;;;;;5066655;28;20492;-61
2021/07/26 09:42:57;;;;;;;4.80;4.07;;;25.50;99.90;;;;;;5065347;28;20471;-61
2021/07/26 09:45:25;;;;;;;6.43;4.20;;;25.40;99.90;;;;;;5063392;28;20466;-62
2021/07/26 09:48:09;;;;;;;8.07;4.90;;;25.40;99.90;;;;;;5063032;28;20495;-61
2021/07/26 09:50:38;;;;;;;6.27;4.30;;;24.30;99.90;;;;;;5066927;28;20454;-60
2021/07/26 09:53:10;;;;;;;6.40;4.47;;;24.40;99.90;;;;;;5063953;28;20955;-61
2021/07/26 09:55:38;;;;;;;5.57;4.80;;;25.20;99.90;;;;;;5063774;28;21105;-63
2021/07/26 09:58:06;;;;;;;5.40;4.47;;;25.70;99.90;;;;;;5105415;22;20489;-54
2021/07/26 10:00:33;;;;;;;4.90;4.33;;;26.00;99.90;;;;;;5088557;28;20486;-53
2021/07/26 10:03:00;;;;;;;5.23;4.17;;;25.60;99.90;;;;;;5086109;28;20942;-54
2021/07/26 10:05:31;;;;;;;7.40;4.50;;;25.10;99.90;;;;;;5087023;28;20450;-53
2021/07/26 10:08:01;;;;;;;5.30;4.80;;;24.50;99.90;;;;;;5088506;28;20485;-54
2021/07/26 10:10:28;;;;;;;5.97;5.33;;;24.40;99.90;;;;;;5092420;28;20468;-54
2021/07/26 10:12:56;;;;;;;6.23;5.17;;;24.60;99.90;;;;;;5086914;28;20462;-54
2021/07/26 10:15:23;;;;;;;6.70;4.90;;;25.40;99.90;;;;;;5090415;28;20478;-53
2021/07/26 10:17:51;;;;;;;7.07;5.67;;;25.60;99.90;;;;;;5085508;28;20527;-53
2021/07/26 10:20:23;;;;;;;5.27;4.77;;;25.40;99.90;;;;;;5083336;28;21006;-53
2021/07/26 10:22:58;;;;;;;6.57;5.90;;;26.20;99.90;;;;;;5085384;28;20462;-53
2021/07/26 10:25:46;;;;;;;5.40;4.90;;;25.80;99.90;;;;;;5086449;28;20457;-54
2021/07/26 10:28:17;;;;;;;6.10;5.43;;;26.20;99.90;;;;;;5085093;28;20477;-53
2021/07/26 10:30:44;;;;;;;6.00;4.23;;;26.50;99.90;;;;;;5085813;28;20548;-54
2021/07/26 10:33:11;;;;;;;7.70;5.17;;;26.30;99.90;;;;;;5089003;28;20885;-54
2021/07/26 10:35:48;;;;;;;5.83;5.20;;;27.00;99.90;;;;;;5094405;28;20438;-54
2021/07/26 10:38:35;;;;;;;5.30;4.80;;;27.10;99.90;;;;;;5074188;28;20454;-54
2021/07/26 10:41:04;;;;;;;5.57;5.07;;;26.60;99.90;;;;;;5073999;28;20948;-53
2021/07/26 10:43:55;;;;;;;4.70;4.30;;;26.10;99.90;;;;;;5074003;28;20438;-54
2021/07/26 10:46:22;;;;;;;5.80;5.20;;;27.20;99.90;;;;;;5079662;28;20499;-54
2021/07/26 10:48:51;;;;;;;7.57;6.40;;;26.90;99.90;;;;;;5094069;28;20530;-54
2021/07/26 10:51:38;;;;;;;6.43;5.40;;;25.60;99.90;;;;;;5094172;28;20460;-54
2021/07/26 10:54:07;;;;;;;6.03;5.43;;;25.40;99.90;;;;;;5093889;28;20450;-54
2021/07/26 10:57:09;;;;;;;5.70;4.90;;;25.30;99.90;;;;;;5094090;28;20450;-53
2021/07/26 11:00:20;;;;;;;7.17;5.13;;;25.30;99.90;;;;;;5093616;28;20599;-53
2021/07/26 11:02:48;;;;;;;6.33;5.43;;;25.30;99.90;;;;;;5073960;28;20990;-53
2021/07/26 11:05:34;;;;;;;6.57;5.70;;;25.10;99.90;;;;;;5090830;28;20494;-53
2021/07/26 11:08:25;;;;;;;6.20;5.30;;;25.30;99.90;;;;;;5073209;28;20466;-53
2021/07/26 11:10:53;;;;;;;5.90;5.30;;;25.80;99.90;;;;;;5080159;28;20446;-53
2021/07/26 11:13:23;;;;;;;5.60;5.00;;;25.80;99.90;;;;;;5092839;28;20450;-53
2021/07/26 11:15:51;;;;;;;7.77;5.47;;;25.80;99.90;;;;;;5093059;28;20495;-53
2021/07/26 11:18:24;;;;;;;6.77;5.90;;;25.00;99.90;;;;;;5092635;28;20493;-53
2021/07/26 11:21:02;;;;;;;7.30;5.90;;;24.70;99.90;;;;;;5093278;28;20481;-53
2021/07/26 11:23:49;;;;;;;5.10;4.60;;;24.70;99.90;;;;;;5093534;28;20446;-53
2021/07/26 11:26:18;;;;;;;14.30;5.13;;;24.70;99.90;;;;;;5093008;28;20950;-53
2021/07/26 11:28:48;;;;;;;6.27;5.17;;;24.80;99.90;;;;;;5093158;28;20469;-53
2021/07/26 11:31:29;;;;;;;5.70;4.50;;;24.80;99.90;;;;;;5093155;28;20449;-53
2021/07/26 11:34:06;;;;;;;4.97;4.53;;;24.90;99.90;;;;;;5091489;28;21000;-53
2021/07/26 11:36:33;;;;;;;6.50;4.80;;;24.90;99.90;;;;;;5092581;28;20495;-53
2021/07/26 11:39:03;;;;;;;5.43;4.93;;;24.40;99.90;;;;;;5092717;28;20473;-53
2021/07/26 11:41:31;;;;;;;6.30;4.60;;;24.40;99.90;;;;;;5092997;28;20503;-54
2021/07/26 11:44:00;;;;;;;4.60;4.20;;;24.60;99.90;;;;;;5091321;28;20441;-54
2021/07/26 11:46:28;;;;;;;4.80;4.30;;;24.70;99.90;;;;;;5092586;28;20495;-53
2021/07/26 11:48:57;;;;;;;4.67;4.27;;;24.60;99.90;;;;;;5092408;28;20561;-53
2021/07/26 11:51:32;;;;;;;5.90;4.27;;;24.80;99.90;;;;;;5092753;28;20454;-53
2021/07/26 11:54:04;;;;;;;4.43;4.03;;;25.00;99.90;;;;;;5092543;28;20449;-54
2021/07/26 11:56:31;;;;;;;5.60;4.80;;;25.20;99.90;;;;;;5092192;28;20525;-54
2021/07/26 11:59:16;;;;;;;5.00;4.60;;;25.10;99.90;;;;;;5092343;28;20474;-53
2021/07/26 12:01:49;;;;;;;5.67;4.90;;;24.80;99.90;;;;;;5092752;28;20563;-53
2021/07/26 12:04:17;;;;;;;4.40;4.00;;;24.60;99.90;;;;;;5092217;28;20446;-53
2021/07/26 12:06:54;;;;;;;5.00;4.40;;;24.40;99.90;;;;;;5091932;28;20454;-53
2021/07/26 12:09:22;;;;;;;5.47;4.97;;;24.30;99.90;;;;;;5091803;28;20445;-53
2021/07/26 12:11:49;;;;;;;4.73;4.27;;;24.30;99.90;;;;;;5086806;28;20458;-53
2021/07/26 12:14:26;;;;;;;4.80;4.30;;;24.60;99.90;;;;;;5092324;28;20515;-53
2021/07/26 12:17:22;;;;;;;4.33;3.93;;;24.80;99.90;;;;;;5092186;28;20516;-53
2021/07/26 12:20:00;;;;;;;4.30;3.90;;;24.60;99.90;;;;;;5090899;28;20532;-53
2021/07/26 12:22:27;;;;;;;3.77;3.47;;;24.60;99.90;;;;;;5091695;28;20495;-53
2021/07/26 12:24:59;;;;;;;3.60;3.30;;;24.80;99.90;;;;;;5092324;28;20846;-53
2021/07/26 12:27:36;;;;;;;3.73;3.43;;;24.70;99.90;;;;;;5091925;28;20884;-52
2021/07/26 12:30:09;;;;;;;4.07;3.70;;;24.80;99.90;;;;;;5091419;28;20523;-53
2021/07/26 12:32:50;;;;;;;4.10;3.70;;;25.30;99.90;;;;;;5092248;28;20450;-53
2021/07/26 12:35:28;;;;;;;3.60;3.30;;;25.70;99.90;;;;;;5092348;28;20477;-53
2021/07/26 12:38:06;;;;;;;4.30;3.30;;;25.80;99.90;;;;;;5092061;28;20470;-52
2021/07/26 12:40:35;;;;;;;3.80;3.40;;;25.80;99.90;;;;;;5092040;28;20481;-53
2021/07/26 12:43:09;;;;;;;3.47;3.17;;;25.70;99.90;;;;;;5091458;28;20450;-53
2021/07/26 12:45:39;;;;;;;3.53;3.23;;;25.60;99.90;;;;;;5092103;28;20453;-53
2021/07/26 12:48:13;;;;;;;4.53;3.43;;;25.70;99.90;;;;;;5091678;28;20470;-53
2021/07/26 12:50:41;;;;;;;3.50;3.20;;;25.90;99.90;;;;;;5092004;28;20887;-53
2021/07/26 12:53:09;;;;;;;4.40;4.00;;;25.80;99.90;;;;;;5091630;28;20441;-53
2021/07/26 12:55:36;;;;;;;3.87;3.23;;;25.90;99.90;;;;;;5091549;28;20821;-53
2021/07/26 12:58:03;;;;;;;4.63;4.20;;;25.70;99.90;;;;;;5091546;28;20473;-52
2021/07/26 13:00:30;;;;;;;4.07;3.77;;;25.50;99.90;;;;;;5091466;28;20525;-52